RJFK

Kagoshima

Airport
ICAO code
RJFK
IATA Code
KOJ
Summary
ICAO Region
APAC
ICAO Territory
Location

Kirishima, Kagoshima Prefecture

Serving
Kagoshima
Elevation
892 ft
Coordinates
31° 48' 12" N , 130° 43' 10" E
KCC
Metar
Observation
RJFK 271000Z VRB02KT 9999 FEW007 SCT012 BKN150 23/22 Q1012
Station
Kagoshima Airport
Date/Time
2022-09-27 10:00:00
Wind speed
02 kts
Lowest cloud amount
few clouds
Temperature
23°C
Dew point
22°C
Humidity
94%
QNH
1012 hPa
Weather condition
n/a

Kagoshima Airport is located in Kirishima, Kagoshima Prefecture, Japan, 29.6 km northeast of Kagoshima City.

Climatology

Humid Sub-tropical climate (Köppen climate classification Cwa) - Hot humid summers and cooler winter. Significant precipitation in all seasons but drier in the winter.

Runways

Designator Length Width Surface Rops
16/34 2999 46 ASP Yes/Yes

Airport map

Aerial View

SKYbrary Partners:

Safety knowledge contributed by: